Date,TemperatureHighF,TemperatureAvgF,TemperatureLowF,DewpointHighF,DewpointAvgF,DewpointLowF,HumidityHigh,HumidityAvg,HumidityLow,PressureMaxIn,PressureMinIn,WindSpeedMaxMPH,WindSpeedAvgMPH,GustSpeedMaxMPH,PrecipitationSumIn
2013-1-1,69,61,54,64,59,52,99,93,81,0.00,40.00,7,3,12,0.10
2013-1-2,54,49,44,53,46,42,97,88,76,0.00,40.00,6,4,11,0.11
2013-1-3,47,43,40,43,38,25,99,85,44,0.00,40.00,7,3,11,0.51
2013-1-4,58,45,36,42,30,20,86,58,25,0.00,40.00,6,2,11,0.00
2013-1-5,46,46,46,31,31,31,56,56,56,0.00,40.00,1,1,4,0.00
2013-1-6,51,48,43,48,43,34,97,84,54,0.00,40.00,5,3,11,0.17
2013-1-7,60,48,38,44,39,30,98,73,37,0.00,40.00,6,2,11,0.00
2013-1-8,63,56,46,60,52,40,96,86,73,0.00,40.00,9,4,17,0.00
2013-1-9,65,63,60,64,62,58,100,95,88,0.00,40.00,10,7,18,0.02
2013-1-10,65,62,60,64,62,54,100,100,86,0.00,40.00,9,5,16,0.42
2013-1-11,68,65,62,68,64,62,100,97,91,0.00,40.00,6,3,14,0.00
2013-1-12,69,64,62,68,64,62,100,100,97,0.00,40.00,5,3,11,0.01
2013-1-13,67,64,56,67,64,54,100,99,95,0.00,40.00,6,-115,12,0.00
2013-1-14,56,50,43,56,50,42,100,99,96,0.00,40.00,6,4,13,0.35
2013-1-15,58,51,45,58,51,44,100,100,98,0.00,40.00,5,2,8,0.21
2013-1-16,51,44,38,51,43,36,100,94,83,0.00,40.00,7,4,12,0.15
2013-1-17,53,43,37,37,34,27,98,71,41,0.00,40.00,10,-1,18,0.00
2013-1-18,57,44,36,42,37,33,97,77,44,0.00,40.00,6,2,11,0.00
2013-1-19,63,48,36,50,41,34,98,79,44,0.00,40.00,5,1,8,0.00
2013-1-20,64,49,38,50,45,37,99,85,56,0.00,40.00,5,1,8,0.00
2013-1-21,68,52,39,47,42,36,100,72,33,0.00,40.00,5,1,10,0.00
2013-1-22,46,42,39,40,39,38,95,89,80,0.00,40.00,0,0,1,0.00
2013-1-23,66,52,37,51,44,36,98,78,48,0.00,40.00,6,2,10,0.00
2013-1-24,70,57,42,57,52,41,97,82,56,0.00,40.00,7,2,12,0.00
2013-1-25,70,59,47,59,55,46,99,85,63,0.00,40.00,7,2,12,0.00
2013-1-26,72,60,51,62,57,51,99,88,62,0.00,40.00,6,2,10,0.00
2013-1-27,68,60,52,63,58,51,100,94,76,0.00,40.00,6,-5,11,0.00
2013-1-28,72,65,60,64,62,58,100,92,75,0.00,40.00,7,4,13,0.02
2013-1-29,69,67,64,69,67,63,100,100,97,0.00,40.00,7,3,13,0.00
2013-1-30,69,59,44,69,52,26,100,79,41,0.00,40.00,12,6,19,0.67
2013-1-31,61,48,34,38,31,20,92,55,25,0.00,40.00,7,2,11,0.00